createdAt,value
2019-02-16T00:01:19.969Z,56.74
2019-02-16T00:03:49.152Z,56.74
2019-02-16T00:06:18.488Z,56.99
2019-02-16T00:08:47.660Z,57.08
2019-02-16T00:11:16.887Z,57.00
2019-02-16T00:13:46.093Z,57.17
2019-02-16T00:16:33.577Z,57.08
2019-02-16T00:19:02.786Z,57.13
2019-02-16T00:21:31.983Z,57.50
2019-02-16T00:24:01.171Z,57.46
2019-02-16T00:26:30.372Z,57.63
2019-02-16T00:28:59.572Z,57.76
2019-02-16T00:31:28.756Z,57.99
2019-02-16T00:33:57.968Z,58.05
2019-02-16T00:36:27.302Z,57.98
2019-02-16T00:38:56.515Z,57.98
2019-02-16T00:41:25.732Z,58.08
2019-02-16T00:43:54.945Z,57.96
2019-02-16T00:46:24.131Z,57.78
2019-02-16T00:48:53.316Z,57.78
2019-02-16T00:51:22.529Z,58.00
2019-02-16T00:53:51.713Z,58.65
2019-02-16T00:56:20.996Z,58.22
2019-02-16T00:58:50.258Z,58.22
2019-02-16T01:01:19.454Z,58.54
2019-02-16T01:03:48.658Z,58.69
2019-02-16T01:06:17.854Z,58.66
2019-02-16T01:08:47.026Z,58.76
2019-02-16T01:11:16.224Z,58.97
2019-02-16T01:13:45.444Z,59.17
2019-02-16T01:16:14.626Z,59.36
2019-02-16T01:18:43.826Z,60.02
2019-02-16T01:21:31.122Z,59.67
2019-02-16T01:24:18.449Z,59.67
2019-02-16T01:26:47.620Z,59.93
2019-02-16T01:29:16.798Z,60.31
2019-02-16T01:31:46.031Z,59.80
2019-02-16T01:34:15.243Z,59.88
2019-02-16T01:36:44.545Z,59.98
2019-02-16T01:39:13.763Z,60.08
2019-02-16T01:41:43.039Z,60.15
2019-02-16T01:44:12.310Z,60.82
2019-02-16T01:46:41.527Z,61.56
2019-02-16T01:49:10.711Z,62.01
2019-02-16T01:51:39.919Z,62.11
2019-02-16T01:54:09.152Z,62.24
2019-02-16T01:56:38.364Z,62.36
2019-02-16T01:59:07.562Z,62.49
2019-02-16T02:01:36.970Z,62.92
2019-02-16T02:04:06.169Z,63.10
2019-02-16T02:06:35.361Z,63.35
2019-02-16T02:09:05.659Z,63.59
2019-02-16T02:11:34.953Z,63.46
2019-02-16T02:14:04.136Z,63.47
2019-02-16T02:16:33.355Z,63.38
2019-02-16T02:19:02.484Z,63.29
2019-02-16T02:21:40.609Z,63.51
2019-02-16T02:24:02.670Z,64.04
2019-02-16T02:26:31.860Z,64.34
2019-02-16T02:29:01.090Z,64.26
2019-02-16T02:31:30.323Z,64.66
2019-02-16T02:33:59.527Z,64.70
2019-02-16T02:36:28.748Z,64.88
2019-02-16T02:38:58.023Z,65.24
2019-02-16T02:41:27.271Z,65.30
2019-02-16T02:43:56.476Z,65.55
2019-02-16T02:46:25.725Z,65.61
2019-02-16T02:48:54.959Z,66.06
2019-02-16T02:51:24.202Z,65.85
2019-02-16T02:53:53.496Z,65.92
2019-02-16T02:56:22.795Z,65.54
2019-02-16T02:58:52.019Z,65.99
2019-02-16T03:01:21.223Z,66.11
2019-02-16T03:03:50.437Z,66.39
2019-02-16T03:06:19.655Z,66.74
2019-02-16T03:08:48.857Z,66.92
2019-02-16T03:11:18.073Z,66.74
2019-02-16T03:13:47.304Z,66.66
2019-02-16T03:16:16.556Z,67.01
2019-02-16T03:18:45.757Z,67.19
2019-02-16T03:21:14.991Z,67.41
2019-02-16T03:23:44.186Z,67.08
2019-02-16T03:26:35.115Z,66.79
2019-02-16T03:29:15.649Z,66.94
2019-02-16T03:32:14.779Z,67.00
2019-02-16T03:34:49.657Z,66.79
2019-02-16T03:37:41.330Z,66.83
2019-02-16T03:40:12.372Z,66.75
2019-02-16T03:42:41.570Z,67.70
2019-02-16T03:45:10.969Z,67.84
2019-02-16T03:47:40.172Z,68.08
2019-02-16T03:50:09.539Z,68.53
2019-02-16T03:52:38.769Z,68.87
2019-02-16T03:55:08.042Z,68.81
2019-02-16T03:57:37.276Z,68.87
2019-02-16T04:00:09.268Z,68.97
2019-02-16T04:02:38.478Z,68.97
2019-02-16T04:05:09.093Z,69.20
2019-02-16T04:07:38.323Z,69.40
2019-02-16T04:10:07.799Z,69.45
2019-02-16T04:12:37.013Z,69.93
2019-02-16T04:15:06.889Z,70.05
2019-02-16T04:17:36.161Z,69.82
2019-02-16T04:20:07.085Z,70.14
2019-02-16T04:22:36.251Z,70.22
2019-02-16T04:25:05.657Z,70.23
2019-02-16T04:27:52.767Z,70.60
2019-02-16T04:30:21.973Z,70.84
2019-02-16T04:32:51.158Z,70.57
2019-02-16T04:35:20.337Z,70.73
2019-02-16T04:37:49.553Z,70.83
2019-02-16T04:40:18.759Z,71.02
2019-02-16T04:42:47.943Z,71.25
2019-02-16T04:45:17.131Z,71.35
2019-02-16T04:47:46.323Z,71.30
2019-02-16T04:50:15.500Z,71.29
2019-02-16T04:52:44.748Z,71.25
2019-02-16T04:55:13.881Z,71.50
2019-02-16T04:57:43.054Z,71.49
2019-02-16T05:00:12.237Z,71.66
2019-02-16T05:02:41.422Z,71.67
2019-02-16T05:05:10.713Z,71.85
2019-02-16T05:07:39.904Z,71.81
2019-02-16T05:10:10.755Z,71.87
2019-02-16T05:12:39.959Z,72.19
2019-02-16T05:15:09.925Z,72.25
2019-02-16T05:17:39.115Z,72.45
2019-02-16T05:20:08.779Z,72.64
2019-02-16T05:22:44.502Z,72.59
2019-02-16T05:25:08.884Z,72.68
2019-02-16T05:27:38.126Z,72.70
2019-02-16T05:30:08.900Z,72.64
2019-02-16T05:32:38.098Z,72.63
2019-02-16T05:35:07.313Z,72.70
2019-02-16T05:37:36.495Z,72.70
2019-02-16T05:40:08.211Z,72.67
2019-02-16T05:42:37.412Z,72.75
2019-02-16T05:45:07.033Z,72.90
2019-02-16T05:47:36.207Z,72.87
2019-02-16T05:50:05.656Z,72.88
2019-02-16T05:52:34.839Z,72.66
2019-02-16T05:55:04.430Z,72.70
2019-02-16T05:57:33.630Z,72.97
2019-02-16T06:00:02.873Z,73.22
2019-02-16T06:02:32.014Z,73.49
2019-02-16T06:05:01.218Z,73.30
2019-02-16T06:07:30.387Z,73.73
2019-02-16T06:09:59.578Z,73.65
2019-02-16T06:12:28.982Z,73.41
2019-02-16T06:14:58.152Z,73.49
2019-02-16T06:17:27.331Z,73.40
2019-02-16T06:19:56.518Z,73.27
2019-02-16T06:22:25.710Z,73.73
2019-02-16T06:24:54.898Z,73.61
2019-02-16T06:27:24.142Z,73.63
2019-02-16T06:29:53.318Z,73.91
2019-02-16T06:32:22.513Z,73.95
2019-02-16T06:34:53.351Z,74.16
2019-02-16T06:37:23.391Z,74.18
2019-02-16T06:39:52.745Z,74.02
2019-02-16T06:42:21.997Z,74.17
2019-02-16T06:44:51.193Z,74.04
2019-02-16T06:47:20.370Z,73.67
2019-02-16T06:49:49.553Z,73.60
2019-02-16T06:52:18.771Z,73.70
2019-02-16T06:54:47.964Z,73.87
2019-02-16T06:57:18.776Z,73.85
2019-02-16T06:59:47.987Z,73.79
2019-02-16T07:02:17.337Z,74.10
2019-02-16T07:04:46.579Z,74.28
2019-02-16T07:07:15.789Z,74.27
2019-02-16T07:09:44.982Z,74.24
2019-02-16T07:12:14.183Z,74.11
2019-02-16T07:14:43.398Z,73.78
2019-02-16T07:17:23.403Z,73.86
2019-02-16T07:19:53.520Z,73.90
2019-02-16T07:22:22.759Z,74.04
2019-02-16T07:24:51.995Z,74.41
2019-02-16T07:27:21.133Z,74.08
2019-02-16T07:29:50.312Z,73.47
2019-02-16T07:32:19.516Z,72.65
2019-02-16T07:34:48.780Z,71.53
2019-02-16T07:37:17.976Z,69.65
2019-02-16T07:39:47.229Z,68.39
2019-02-16T07:42:16.414Z,66.39
2019-02-16T07:44:47.413Z,65.89
2019-02-16T07:47:18.247Z,64.40
2019-02-16T07:49:51.497Z,64.12
2019-02-16T07:52:39.144Z,61.87
2019-02-16T07:55:09.975Z,60.47
2019-02-16T07:57:52.848Z,60.09
2019-02-16T08:00:26.404Z,58.47
2019-02-16T08:03:02.972Z,57.40
2019-02-16T08:05:39.200Z,55.29
2019-02-16T08:08:10.186Z,53.35
2019-02-16T08:10:46.652Z,54.37
2019-02-16T08:13:17.561Z,58.32
2019-02-16T08:15:51.130Z,61.82
2019-02-16T08:18:27.969Z,59.71
2019-02-16T08:21:07.640Z,58.03
2019-02-16T08:23:54.842Z,58.84
2019-02-16T08:26:37.608Z,59.76
2019-02-16T08:29:08.451Z,62.78
2019-02-16T08:31:39.279Z,62.07
2019-02-16T08:34:18.963Z,62.16
2019-02-16T08:36:52.236Z,61.85
2019-02-16T08:39:28.558Z,60.41
2019-02-16T08:41:59.411Z,62.02
2019-02-16T08:44:32.814Z,63.06
2019-02-16T08:47:03.654Z,63.54
2019-02-16T08:49:37.019Z,61.90
2019-02-16T08:52:16.368Z,61.94
2019-02-16T08:54:49.763Z,61.21
2019-02-16T08:57:33.848Z,63.29
2019-02-16T09:00:13.988Z,59.90
2019-02-16T09:03:00.935Z,59.31
2019-02-16T09:05:37.960Z,58.01
2019-02-16T09:08:08.810Z,54.84
2019-02-16T09:10:42.582Z,58.27
2019-02-16T09:13:13.430Z,58.87
2019-02-16T09:15:49.949Z,56.50
2019-02-16T09:18:23.427Z,54.92
2019-02-16T09:21:00.173Z,57.52
2019-02-16T09:23:36.873Z,58.70
2019-02-16T09:26:24.462Z,58.16
2019-02-16T09:29:07.331Z,54.11
2019-02-16T09:31:41.051Z,57.09
2019-02-16T09:34:11.898Z,56.48
2019-02-16T09:36:54.768Z,56.76
2019-02-16T09:39:34.402Z,59.97
2019-02-16T09:42:23.168Z,61.42
2019-02-16T09:44:54.023Z,60.51
2019-02-16T09:47:30.776Z,59.01
2019-02-16T09:50:02.941Z,58.67
2019-02-16T09:52:36.350Z,61.21
2019-02-16T09:55:08.092Z,62.04
2019-02-16T09:57:38.906Z,63.02
2019-02-16T10:00:26.915Z,64.78
2019-02-16T10:03:06.435Z,64.64
2019-02-16T10:05:53.547Z,65.02
2019-02-16T10:08:36.506Z,66.37
2019-02-16T10:11:22.670Z,65.97
2019-02-16T10:13:53.498Z,66.93
2019-02-16T10:16:24.363Z,67.97
2019-02-16T10:19:04.053Z,66.44
2019-02-16T10:21:47.009Z,67.23
2019-02-16T10:24:33.941Z,66.21
2019-02-16T10:27:13.832Z,66.21
2019-02-16T10:29:50.531Z,66.06
2019-02-16T10:32:37.260Z,66.08
2019-02-16T10:35:14.144Z,66.12
2019-02-16T10:37:44.975Z,66.24
2019-02-16T10:40:27.988Z,66.11
2019-02-16T10:42:58.822Z,66.07
2019-02-16T10:45:46.227Z,66.13
2019-02-16T10:48:19.593Z,66.16
2019-02-16T10:50:56.227Z,67.00
2019-02-16T10:53:29.818Z,67.28
2019-02-16T10:56:15.788Z,67.58
2019-02-16T10:59:04.803Z,68.08
2019-02-16T11:01:35.652Z,67.92
2019-02-16T11:04:06.573Z,67.92
2019-02-16T11:06:55.555Z,67.48
2019-02-16T11:09:41.507Z,68.23
2019-02-16T11:12:21.192Z,68.23
2019-02-16T11:14:57.757Z,68.07
2019-02-16T11:17:31.412Z,67.63
2019-02-16T11:20:02.227Z,68.37
2019-02-16T11:22:49.078Z,68.67
2019-02-16T11:25:31.901Z,68.08
2019-02-16T11:28:05.316Z,67.89
2019-02-16T11:30:38.756Z,67.82
2019-02-16T11:33:15.308Z,67.82
2019-02-16T11:35:48.723Z,68.00
2019-02-16T11:38:25.848Z,68.06
2019-02-16T11:41:18.586Z,67.85
2019-02-16T11:43:45.224Z,67.60
2019-02-16T11:46:25.012Z,67.60
2019-02-16T11:48:58.383Z,67.32
2019-02-16T11:51:44.506Z,67.32
2019-02-16T11:54:15.351Z,66.99
2019-02-16T11:56:46.185Z,66.99
2019-02-16T11:59:33.346Z,66.69
2019-02-16T12:02:04.163Z,66.69
2019-02-16T12:04:37.681Z,67.24
2019-02-16T12:07:08.591Z,67.28
2019-02-16T12:09:39.407Z,67.28
2019-02-16T12:12:22.204Z,66.66
2019-02-16T12:14:53.045Z,66.66
2019-02-16T12:17:26.567Z,66.27
2019-02-16T12:20:03.271Z,66.02
2019-02-16T12:22:43.167Z,66.21
2019-02-16T12:25:19.945Z,66.21
2019-02-16T12:28:07.114Z,65.81
2019-02-16T12:30:54.303Z,66.40
2019-02-16T12:33:41.436Z,66.72
2019-02-16T12:36:28.409Z,66.75
2019-02-16T12:39:15.542Z,66.75
2019-02-16T12:41:55.289Z,66.67
2019-02-16T12:44:28.671Z,67.08
2019-02-16T12:47:02.354Z,67.08
2019-02-16T12:49:41.811Z,67.04
2019-02-16T12:52:30.575Z,66.72
2019-02-16T12:55:14.417Z,66.72
2019-02-16T12:57:39.833Z,66.60
2019-02-16T13:00:15.303Z,66.15
2019-02-16T13:02:48.831Z,66.59
2019-02-16T13:05:25.585Z,66.52
2019-02-16T13:08:02.243Z,66.17
2019-02-16T13:10:33.084Z,66.18
2019-02-16T13:13:20.014Z,66.49
2019-02-16T13:15:56.553Z,66.12
2019-02-16T13:18:42.571Z,66.13
2019-02-16T13:21:19.198Z,65.90
2019-02-16T13:23:59.041Z,65.86
2019-02-16T13:26:38.757Z,65.88
2019-02-16T13:29:12.412Z,66.23
2019-02-16T13:31:58.169Z,66.23
2019-02-16T13:34:29.027Z,65.82
2019-02-16T13:37:08.462Z,65.82
2019-02-16T13:39:39.316Z,65.66
2019-02-16T13:42:10.775Z,65.58
2019-02-16T13:44:47.493Z,65.04
2019-02-16T13:47:18.319Z,64.74
2019-02-16T13:49:51.621Z,64.87
2019-02-16T13:52:22.445Z,65.24
2019-02-16T13:54:55.769Z,65.22
2019-02-16T13:57:38.845Z,64.94
2019-02-16T14:00:10.417Z,65.83
2019-02-16T14:02:44.041Z,65.88
2019-02-16T14:05:26.674Z,66.02
2019-02-16T14:08:12.611Z,65.76
2019-02-16T14:10:52.281Z,66.18
2019-02-16T14:13:23.115Z,66.23
2019-02-16T14:15:53.937Z,66.13
2019-02-16T14:18:23.135Z,65.93
2019-02-16T14:20:52.353Z,66.14
2019-02-16T14:23:21.545Z,66.19
2019-02-16T14:25:50.744Z,66.08
2019-02-16T14:28:19.932Z,65.87
2019-02-16T14:31:07.143Z,66.01
2019-02-16T14:33:54.510Z,66.02
2019-02-16T14:36:23.720Z,66.21
2019-02-16T14:38:54.553Z,66.21
2019-02-16T14:41:23.791Z,66.64
2019-02-16T14:43:52.955Z,66.60
2019-02-16T14:46:22.154Z,66.95
2019-02-16T14:48:51.346Z,66.92
2019-02-16T14:51:20.548Z,66.66
2019-02-16T14:53:49.726Z,67.11
2019-02-16T14:56:18.937Z,67.43
2019-02-16T14:58:48.114Z,67.68
2019-02-16T15:01:17.296Z,68.06
2019-02-16T15:03:46.523Z,68.22
2019-02-16T15:06:15.718Z,68.39
2019-02-16T15:08:44.882Z,68.45
2019-02-16T15:11:14.093Z,68.47
2019-02-16T15:13:45.016Z,68.37
2019-02-16T15:16:14.154Z,68.16
2019-02-16T15:18:43.352Z,68.38
2019-02-16T15:21:12.548Z,68.54
2019-02-16T15:23:41.744Z,68.80
2019-02-16T15:26:10.959Z,68.73
2019-02-16T15:28:41.078Z,68.93
2019-02-16T15:31:10.281Z,68.89
2019-02-16T15:33:39.377Z,68.79
2019-02-16T15:36:08.568Z,68.67
2019-02-16T15:38:37.767Z,68.49
2019-02-16T15:41:06.891Z,68.47
2019-02-16T15:43:36.075Z,68.21
2019-02-16T15:46:05.323Z,68.14
2019-02-16T15:48:34.539Z,68.20
2019-02-16T15:51:03.727Z,68.10
2019-02-16T15:53:32.918Z,68.02
2019-02-16T15:56:10.106Z,68.16
2019-02-16T15:58:33.054Z,67.97
2019-02-16T16:01:02.225Z,68.12
2019-02-16T16:03:31.402Z,68.93
2019-02-16T16:06:00.652Z,69.54
2019-02-16T16:08:31.500Z,69.75
2019-02-16T16:11:20.491Z,69.88
2019-02-16T16:13:57.261Z,69.80
2019-02-16T16:16:28.099Z,69.69
2019-02-16T16:18:58.926Z,69.73
2019-02-16T16:21:32.179Z,69.75
2019-02-16T16:24:06.165Z,69.68
2019-02-16T16:26:42.602Z,69.65
2019-02-16T16:29:13.442Z,69.73
2019-02-16T16:31:44.262Z,69.82
2019-02-16T16:34:24.164Z,69.94
2019-02-16T16:37:07.216Z,69.89
2019-02-16T16:39:50.266Z,69.95
2019-02-16T16:42:37.161Z,69.87
2019-02-16T16:45:14.813Z,69.89
2019-02-16T16:47:57.985Z,69.89
2019-02-16T16:50:28.830Z,69.98
2019-02-16T16:53:16.090Z,70.06
2019-02-16T16:55:53.120Z,70.13
2019-02-16T16:58:33.102Z,70.41
2019-02-16T17:01:15.732Z,70.52
2019-02-16T17:04:10.347Z,70.58
2019-02-16T17:06:50.025Z,70.66
2019-02-16T17:09:24.338Z,70.87
2019-02-16T17:11:55.181Z,71.07
2019-02-16T17:14:26.000Z,71.11
2019-02-16T17:16:56.838Z,71.16
2019-02-16T17:19:42.832Z,71.33
2019-02-16T17:22:13.656Z,71.53
2019-02-16T17:24:44.493Z,71.61
2019-02-16T17:27:24.159Z,71.71
2019-02-16T17:30:00.793Z,71.78
2019-02-16T17:32:31.655Z,71.78
2019-02-16T17:35:05.151Z,71.84
2019-02-16T17:37:38.903Z,71.74
2019-02-16T17:40:26.364Z,71.84
2019-02-16T17:43:03.117Z,71.75
2019-02-16T17:45:36.743Z,71.81
2019-02-16T17:48:16.486Z,71.75
2019-02-16T17:50:50.365Z,71.44
2019-02-16T17:53:21.227Z,71.01
2019-02-16T17:55:52.057Z,71.01
2019-02-16T17:58:41.178Z,71.00
2019-02-16T18:01:14.884Z,70.69
2019-02-16T18:03:45.717Z,70.65
2019-02-16T18:06:16.562Z,70.39
2019-02-16T18:08:47.419Z,70.20
2019-02-16T18:11:18.237Z,70.09
2019-02-16T18:13:49.063Z,70.36
2019-02-16T18:16:19.898Z,69.95
2019-02-16T18:18:50.743Z,69.83
2019-02-16T18:21:33.530Z,69.55
2019-02-16T18:24:10.183Z,69.53
2019-02-16T18:26:57.137Z,69.35
2019-02-16T18:29:33.591Z,69.18
2019-02-16T18:32:19.275Z,68.87
2019-02-16T18:34:52.681Z,68.91
2019-02-16T18:37:26.282Z,68.70
2019-02-16T18:40:03.241Z,68.65
2019-02-16T18:42:39.931Z,68.62
2019-02-16T18:45:28.995Z,68.48
2019-02-16T18:48:11.309Z,68.53
2019-02-16T18:50:58.437Z,68.22
2019-02-16T18:53:41.080Z,68.13
2019-02-16T18:56:14.758Z,68.25
2019-02-16T18:58:45.598Z,68.21
2019-02-16T19:01:16.432Z,68.32
2019-02-16T19:03:53.125Z,68.39
2019-02-16T19:06:35.900Z,68.99
2019-02-16T19:09:10.810Z,69.04
2019-02-16T19:11:44.283Z,68.93
2019-02-16T19:14:20.832Z,68.90
2019-02-16T19:17:00.498Z,68.62
2019-02-16T19:19:40.197Z,69.23
2019-02-16T19:22:17.109Z,69.38
2019-02-16T19:24:50.533Z,69.42
2019-02-16T19:27:21.354Z,69.53
2019-02-16T19:30:01.319Z,69.34
2019-02-16T19:32:50.259Z,69.24
2019-02-16T19:35:26.679Z,69.15
2019-02-16T19:38:06.603Z,69.15
2019-02-16T19:40:37.450Z,68.73
2019-02-16T19:43:10.977Z,69.23
2019-02-16T19:45:41.806Z,69.23
2019-02-16T19:48:12.650Z,69.50
2019-02-16T19:50:46.196Z,69.54
2019-02-16T19:53:22.956Z,69.54
2019-02-16T19:56:11.870Z,69.76
2019-02-16T19:58:42.748Z,69.97
2019-02-16T20:01:31.537Z,70.07
2019-02-16T20:04:18.263Z,70.10
2019-02-16T20:06:58.088Z,70.33
2019-02-16T20:09:28.916Z,70.12
2019-02-16T20:12:05.687Z,70.13
2019-02-16T20:14:52.432Z,69.89
2019-02-16T20:17:26.256Z,70.43
2019-02-16T20:20:06.257Z,70.77
2019-02-16T20:22:37.113Z,70.79
2019-02-16T20:25:10.621Z,70.66
2019-02-16T20:27:50.176Z,70.52
2019-02-16T20:30:33.135Z,70.41
2019-02-16T20:33:05.657Z,70.16
2019-02-16T20:35:42.315Z,70.29
2019-02-16T20:38:13.152Z,70.81
2019-02-16T20:40:43.995Z,70.81
2019-02-16T20:43:14.888Z,70.27
2019-02-16T20:45:54.691Z,69.98
2019-02-16T20:48:25.516Z,69.54
2019-02-16T20:50:56.335Z,69.54
2019-02-16T20:53:45.548Z,69.34
2019-02-16T20:56:32.394Z,69.53
2019-02-16T20:59:09.098Z,70.09
2019-02-16T21:01:51.924Z,70.09
2019-02-16T21:04:26.009Z,70.29
2019-02-16T21:06:56.841Z,70.36
2019-02-16T21:09:27.664Z,70.10
2019-02-16T21:12:01.106Z,69.64
2019-02-16T21:14:47.027Z,69.42
2019-02-16T21:17:34.119Z,69.42
2019-02-16T21:20:21.214Z,69.19
2019-02-16T21:23:09.995Z,69.24
2019-02-16T21:25:40.818Z,69.24
2019-02-16T21:28:11.644Z,68.52
2019-02-16T21:31:00.380Z,68.78
2019-02-16T21:33:40.045Z,68.78
2019-02-16T21:36:10.911Z,68.82
2019-02-16T21:38:44.357Z,68.54
2019-02-16T21:41:18.145Z,68.79
2019-02-16T21:44:06.940Z,68.79
2019-02-16T21:46:58.724Z,68.87
2019-02-16T21:49:29.617Z,68.71
2019-02-16T21:52:00.429Z,68.71
2019-02-16T21:54:31.302Z,68.89
2019-02-16T21:57:07.771Z,68.87
2019-02-16T21:59:54.963Z,68.41
2019-02-16T22:02:25.810Z,68.41
2019-02-16T22:05:02.297Z,68.48
2019-02-16T22:07:35.731Z,68.93
2019-02-16T22:10:14.336Z,69.85
2019-02-16T22:13:01.652Z,70.19
2019-02-16T22:15:30.909Z,69.89
2019-02-16T22:18:00.115Z,69.89
2019-02-16T22:20:29.344Z,69.56
2019-02-16T22:22:58.524Z,69.56
2019-02-16T22:25:27.732Z,69.89
2019-02-16T22:27:56.936Z,69.89
2019-02-16T22:30:26.135Z,69.85
2019-02-16T22:32:55.364Z,69.92
2019-02-16T22:35:24.536Z,70.98
2019-02-16T22:37:53.715Z,71.46
2019-02-16T22:40:22.928Z,71.46
2019-02-16T22:42:52.109Z,72.16
2019-02-16T22:45:21.289Z,71.77
2019-02-16T22:47:50.502Z,72.27
2019-02-16T22:50:19.711Z,72.27
2019-02-16T22:52:48.892Z,72.34
2019-02-16T22:55:18.094Z,73.18
2019-02-16T22:57:47.359Z,73.18
2019-02-16T23:00:38.242Z,73.61
2019-02-16T23:03:07.920Z,73.96
2019-02-16T23:05:37.163Z,73.96
2019-02-16T23:08:06.452Z,74.16
2019-02-16T23:10:35.630Z,73.50
2019-02-16T23:13:04.889Z,73.12
2019-02-16T23:15:34.094Z,73.12
2019-02-16T23:18:03.313Z,73.17
2019-02-16T23:20:32.576Z,73.17
2019-02-16T23:23:01.945Z,72.18
2019-02-16T23:25:31.146Z,72.18
2019-02-16T23:28:00.405Z,72.28
2019-02-16T23:30:29.596Z,71.86
2019-02-16T23:33:07.633Z,71.96
2019-02-16T23:35:36.814Z,71.96
2019-02-16T23:38:06.070Z,71.90
2019-02-16T23:40:35.283Z,71.50
2019-02-16T23:43:04.536Z,71.39
2019-02-16T23:45:33.728Z,70.92
2019-02-16T23:48:02.948Z,70.92
2019-02-16T23:50:32.126Z,71.58
2019-02-16T23:53:01.306Z,71.58
2019-02-16T23:55:30.520Z,71.13
2019-02-16T23:57:59.714Z,71.13
